SBKG/CPV METAR and TAF weather

Enter ICAO airport designator
Station Type Date Time Source
SBKG METAR 2018/12/15 20:00 UTC NOAA

SBKG 152000Z 10013KT CAVOK 28/15 Q1016


Station Type Date Time Source
SBKG Decoded METAR 2018/12/15 20:00 UTC NOAA

Campina Grande, Brazil (SBKG) 07-13S 035-53W
Dec 15, 2018 - 03:00 PM EST / 2018.12.15 2000 UTC
Wind: from the E (100 degrees) at 15 MPH (13 KT):0
Visibility: greater than 7 mile(s):0
Temperature: 82 F (28 C)
Dew Point: 59 F (15 C)
Relative Humidity: 45%
Pressure (altimeter): 30.00 in. Hg (1016 hPa)
ob: SBKG 152000Z 10013KT CAVOK 28/15 Q1016
cycle: 20

Station Type Date Time Source
SBKG TAF 2018/12/15 18:33 UTC NOAA

TAF SBKG 151500Z 1518/1606 12013KT 9999 SCT040 TX30/1518Z TN21/1605Z
BECMG 1523/1601 13009KT
BECMG 1603/1605 BKN010
RMK PEU


Example: see airport list